Montrose, Minnesota
Current Conditions -  °F | °C
As of 4:15 AM on Sunday 25 Jan 2015 (Local Time) from KCFE Reporting Station
Broken Clouds Broken Clouds  
Wind Chill: 15°   Ceiling: 2100
Heat Index: 26°   Visibility: 10mi
Dew Point: 20°   Wind: 12mph
Humidity: 80%   Direction: 20°NNE
Pressure: 29.85"   Gusts: NA
Location:  45.06°N, 93.91°W
Report Text: KCFE 251015Z AUTO 02010KT 10SM BKN021 BKN027 M03/M06 A2985 RMK AO2 T10351065
Loading
Personal Weather Stations






























Interactive Weather Map New forecast layout! Learn more

10-Day Weather Forecast

Advertisements
Track Severe Weather on mobile